Time,TemperatureF,DewpointF,PressureIn,WindDirection,WindDirectionDegrees,WindSpeedMPH,WindSpeedGustMPH,Humidity,HourlyPrecipIn,Conditions,Clouds,dailyrainin,SoftwareType,DateUTC
2013-05-06 00:20:00,53.8,33.5,29.87,SSW,213,2.0,3.0,46,0.00,,,0.00,Wunderground v.1.15,2013-05-06 04:20:00,
2013-05-06 00:25:00,54.0,33.7,29.86,SW,219,3.0,3.0,46,0.00,,,0.00,Wunderground v.1.15,2013-05-06 04:25:00,
2013-05-06 00:30:00,54.1,33.8,29.86,SSW,208,3.0,3.0,46,0.00,,,0.00,Wunderground v.1.15,2013-05-06 04:30:00,
2013-05-06 00:35:00,54.1,33.8,29.86,SSW,195,2.0,3.0,46,0.00,,,0.00,Wunderground v.1.15,2013-05-06 04:35:00,
2013-05-06 00:50:00,53.4,33.7,29.87,SW,221,1.0,3.0,47,0.00,,,0.00,Wunderground v.1.15,2013-05-06 04:50:00,
2013-05-06 00:55:00,53.1,33.9,29.87,SW,230,2.0,3.0,48,0.00,,,0.00,Wunderground v.1.15,2013-05-06 04:55:00,
2013-05-06 01:05:00,52.8,34.7,29.86,SSW,211,3.0,4.0,50,0.00,,,0.00,Wunderground v.1.15,2013-05-06 05:05:00,
2013-05-06 01:15:00,51.9,34.3,29.86,SW,231,3.0,3.0,51,0.00,,,0.00,Wunderground v.1.15,2013-05-06 05:15:00,
2013-05-06 01:30:00,51.2,34.6,29.86,SW,227,3.0,-999.0,53,0.00,,,0.00,Wunderground v.1.15,2013-05-06 05:30:00,
2013-05-06 01:35:00,51.1,35.0,29.86,SSW,202,2.0,2.0,54,0.00,,,0.00,Wunderground v.1.15,2013-05-06 05:35:00,
2013-05-06 01:45:00,50.9,35.3,29.86,SW,216,2.0,3.0,55,0.00,,,0.00,Wunderground v.1.15,2013-05-06 05:45:00,
2013-05-06 01:55:00,50.2,35.5,29.86,SW,228,1.0,1.0,57,0.00,,,0.00,Wunderground v.1.15,2013-05-06 05:55:00,
2013-05-06 02:15:00,49.6,35.8,29.86,WSW,242,2.0,3.0,59,0.00,,,0.00,Wunderground v.1.15,2013-05-06 06:15:00,
2013-05-06 02:20:00,49.5,35.8,29.86,SW,234,3.0,4.0,59,0.00,,,0.00,Wunderground v.1.15,2013-05-06 06:20:00,
2013-05-06 02:25:00,49.2,35.9,29.86,SSW,197,2.0,2.0,60,0.00,,,0.00,Wunderground v.1.15,2013-05-06 06:25:00,
2013-05-06 02:35:00,49.1,36.2,29.86,SSW,210,1.0,1.0,61,0.00,,,0.00,Wunderground v.1.15,2013-05-06 06:35:00,
2013-05-06 02:40:00,49.6,36.3,29.86,SW,234,2.0,2.0,60,0.00,,,0.00,Wunderground v.1.15,2013-05-06 06:40:00,
2013-05-06 02:55:00,49.7,36.4,29.86,WSW,238,2.0,2.0,60,0.00,,,0.00,Wunderground v.1.15,2013-05-06 06:55:00,
2013-05-06 03:00:00,49.4,36.1,29.86,SW,232,1.0,1.0,60,0.00,,,0.00,Wunderground v.1.15,2013-05-06 07:00:00,
2013-05-06 03:20:00,49.3,36.4,29.85,SSW,205,1.0,1.0,61,0.00,,,0.00,Wunderground v.1.15,2013-05-06 07:20:00,
2013-05-06 03:40:00,48.1,36.1,29.85,SW,223,1.0,1.0,63,0.00,,,0.00,Wunderground v.1.15,2013-05-06 07:40:00,
2013-05-06 03:45:00,47.4,36.2,29.85,SW,223,0.0,1.0,65,0.00,,,0.00,Wunderground v.1.15,2013-05-06 07:45:00,
2013-05-06 03:55:00,46.9,36.1,29.86,SW,223,0.0,0.0,66,0.00,,,0.00,Wunderground v.1.15,2013-05-06 07:55:00,
2013-05-06 04:00:00,46.7,35.9,29.85,SW,223,0.0,0.0,66,0.00,,,0.00,Wunderground v.1.15,2013-05-06 08:00:00,
2013-05-06 04:05:00,46.5,36.1,29.85,SW,223,0.0,0.0,67,0.00,,,0.00,Wunderground v.1.15,2013-05-06 08:05:00,
2013-05-06 04:15:00,45.6,36.0,29.85,West,259,1.0,1.0,69,0.00,,,0.00,Wunderground v.1.15,2013-05-06 08:15:00,
2013-05-06 04:20:00,45.1,35.9,29.85,West,260,1.0,1.0,70,0.00,,,0.00,Wunderground v.1.15,2013-05-06 08:20:00,
2013-05-06 04:35:00,44.9,36.1,29.86,West,260,1.0,1.0,71,0.00,,,0.00,Wunderground v.1.15,2013-05-06 08:35:00,
2013-05-06 04:40:00,45.0,35.8,29.86,West,260,0.0,1.0,70,0.00,,,0.00,Wunderground v.1.15,2013-05-06 08:40:00,
2013-05-06 04:45:00,45.3,36.1,29.86,West,260,0.0,0.0,70,0.00,,,0.00,Wunderground v.1.15,2013-05-06 08:45:00,
2013-05-06 04:55:00,45.6,36.0,29.86,WSW,248,0.0,0.0,69,0.00,,,0.00,Wunderground v.1.15,2013-05-06 08:55:00,
2013-05-06 05:05:00,44.7,35.9,29.86,WSW,248,1.0,1.0,71,0.00,,,0.00,Wunderground v.1.15,2013-05-06 09:05:00,
2013-05-06 05:10:00,44.9,36.1,29.86,WSW,248,1.0,1.0,71,0.00,,,0.00,Wunderground v.1.15,2013-05-06 09:10:00,
2013-05-06 05:20:00,45.2,36.0,29.86,WSW,248,0.0,1.0,70,0.00,,,0.00,Wunderground v.1.15,2013-05-06 09:20:00,
2013-05-06 05:45:00,44.6,36.1,29.87,SSW,212,1.0,1.0,72,0.00,,,0.00,Wunderground v.1.15,2013-05-06 09:45:00,
2013-05-06 06:10:00,43.5,35.8,29.88,SW,214,0.0,0.0,74,0.00,,,0.00,Wunderground v.1.15,2013-05-06 10:10:00,
2013-05-06 06:15:00,43.7,36.0,29.88,SW,214,0.0,0.0,74,0.00,,,0.00,Wunderground v.1.15,2013-05-06 10:15:00,
2013-05-06 06:20:00,44.0,36.2,29.88,SW,214,0.0,0.0,74,0.00,,,0.00,Wunderground v.1.15,2013-05-06 10:20:00,
2013-05-06 06:30:00,44.9,36.8,29.88,SW,214,0.0,0.0,73,0.00,,,0.00,Wunderground v.1.15,2013-05-06 10:30:00,
2013-05-06 06:45:00,46.1,37.6,29.88,SW,214,0.0,0.0,72,0.00,,,0.00,Wunderground v.1.15,2013-05-06 10:45:00,
2013-05-06 07:05:00,48.0,39.0,29.88,SW,214,0.0,0.0,71,0.00,,,0.00,Wunderground v.1.15,2013-05-06 11:05:00,
2013-05-06 07:10:00,48.7,38.6,29.88,SW,214,1.0,1.0,68,0.00,,,0.00,Wunderground v.1.15,2013-05-06 11:10:00,
2013-05-06 07:20:00,50.2,39.7,29.88,SW,214,0.0,0.0,67,0.00,,,0.00,Wunderground v.1.15,2013-05-06 11:20:00,
2013-05-06 07:25:00,50.6,38.9,29.88,SW,214,0.0,0.0,64,0.00,,,0.00,Wunderground v.1.15,2013-05-06 11:25:00,
2013-05-06 07:30:00,51.1,40.5,29.88,SW,214,0.0,0.0,67,0.00,,,0.00,Wunderground v.1.15,2013-05-06 11:30:00,
2013-05-06 07:40:00,52.1,40.7,29.88,SSE,155,0.0,0.0,65,0.00,,,0.00,Wunderground v.1.15,2013-05-06 11:40:00,
2013-05-06 07:45:00,52.4,40.6,29.88,SSE,155,0.0,0.0,64,0.00,,,0.00,Wunderground v.1.15,2013-05-06 11:45:00,
2013-05-06 07:50:00,52.7,40.5,29.88,SSE,155,0.0,0.0,63,0.00,,,0.00,Wunderground v.1.15,2013-05-06 11:50:00,
2013-05-06 07:55:00,52.8,40.5,29.88,East,101,1.0,1.0,63,0.00,,,0.00,Wunderground v.1.15,2013-05-06 11:55:00,
2013-05-06 08:00:00,52.8,41.0,29.88,NE,51,1.0,2.0,64,0.00,,,0.00,Wunderground v.1.15,2013-05-06 12:00:00,
2013-05-06 08:10:00,53.6,40.5,29.88,SE,142,1.0,2.0,61,0.00,,,0.00,Wunderground v.1.15,2013-05-06 12:10:00,
2013-05-06 08:15:00,53.3,40.2,29.88,SSE,164,1.0,1.0,61,0.00,,,0.00,Wunderground v.1.15,2013-05-06 12:15:00,
2013-05-06 08:25:00,53.2,40.9,29.88,South,172,1.0,3.0,63,0.00,,,0.00,Wunderground v.1.15,2013-05-06 12:25:00,
2013-05-06 08:30:00,53.7,42.2,29.88,South,172,1.0,2.0,65,0.00,,,0.00,Wunderground v.1.15,2013-05-06 12:30:00,
2013-05-06 08:40:00,54.9,40.4,29.88,SSE,158,1.0,1.0,58,0.00,,,0.00,Wunderground v.1.15,2013-05-06 12:40:00,
2013-05-06 08:50:00,55.8,41.7,29.88,SSE,163,1.0,2.0,59,0.00,,,0.00,Wunderground v.1.15,2013-05-06 12:50:00,
2013-05-06 08:55:00,56.3,41.7,29.89,South,181,1.0,2.0,58,0.00,,,0.00,Wunderground v.1.15,2013-05-06 12:55:00,
2013-05-06 09:00:00,56.4,42.2,29.89,South,176,1.0,2.0,59,0.00,,,0.00,Wunderground v.1.15,2013-05-06 13:00:00,
2013-05-06 09:05:00,56.3,40.8,29.89,SSW,194,2.0,2.0,56,0.00,,,0.00,Wunderground v.1.15,2013-05-06 13:05:00,
2013-05-06 09:15:00,57.1,42.0,29.88,ENE,77,1.0,1.0,57,0.00,,,0.00,Wunderground v.1.15,2013-05-06 13:15:00,
2013-05-06 09:25:00,58.0,43.3,29.88,SE,124,1.0,1.0,58,0.00,,,0.00,Wunderground v.1.15,2013-05-06 13:25:00,
2013-05-06 09:30:00,58.7,43.0,29.88,SE,128,1.0,1.0,56,0.00,,,0.00,Wunderground v.1.15,2013-05-06 13:30:00,
2013-05-06 09:35:00,59.6,41.9,29.88,SE,134,1.0,2.0,52,0.00,,,0.00,Wunderground v.1.15,2013-05-06 13:35:00,
2013-05-06 09:45:00,60.2,43.5,29.88,ESE,103,2.0,2.0,54,0.00,,,0.00,Wunderground v.1.15,2013-05-06 13:45:00,
2013-05-06 09:55:00,60.5,43.8,29.88,South,182,2.0,2.0,54,0.00,,,0.00,Wunderground v.1.15,2013-05-06 13:55:00,
2013-05-06 10:05:00,62.3,42.9,29.87,SSW,201,1.0,2.0,49,0.00,,,0.00,Wunderground v.1.15,2013-05-06 14:05:00,
2013-05-06 10:10:00,62.4,45.5,29.87,South,188,2.0,2.0,54,0.00,,,0.00,Wunderground v.1.15,2013-05-06 14:10:00,
2013-05-06 10:25:00,64.0,43.9,29.87,SSW,194,2.0,5.0,48,0.00,,,0.00,Wunderground v.1.15,2013-05-06 14:25:00,
2013-05-06 10:40:00,65.3,45.6,29.87,East,100,3.0,5.0,49,0.00,,,0.00,Wunderground v.1.15,2013-05-06 14:40:00,
2013-05-06 10:45:00,65.9,42.8,29.87,ESE,120,3.0,5.0,43,0.00,,,0.00,Wunderground v.1.15,2013-05-06 14:45:00,
2013-05-06 10:50:00,66.5,39.4,29.87,East,97,3.0,5.0,37,0.00,,,0.00,Wunderground v.1.15,2013-05-06 14:50:00,
2013-05-06 10:55:00,66.6,42.2,29.86,ESE,122,3.0,5.0,41,0.00,,,0.00,Wunderground v.1.15,2013-05-06 14:55:00,
2013-05-06 11:10:00,67.8,41.9,29.86,ESE,123,3.0,4.0,39,0.00,,,0.00,Wunderground v.1.15,2013-05-06 15:10:00,
2013-05-06 11:15:00,68.0,41.4,29.85,ESE,121,4.0,4.0,38,0.00,,,0.00,Wunderground v.1.15,2013-05-06 15:15:00,
2013-05-06 11:20:00,68.2,41.6,29.85,ESE,117,3.0,5.0,38,0.00,,,0.00,Wunderground v.1.15,2013-05-06 15:20:00,
2013-05-06 11:25:00,68.4,42.5,29.85,SE,126,3.0,5.0,39,0.00,,,0.00,Wunderground v.1.15,2013-05-06 15:25:00,
2013-05-06 11:35:00,69.2,41.8,29.85,SE,125,3.0,3.0,37,0.00,,,0.00,Wunderground v.1.15,2013-05-06 15:35:00,
2013-05-06 11:45:00,69.6,41.5,29.85,SE,138,3.0,3.0,36,0.00,,,0.00,Wunderground v.1.15,2013-05-06 15:45:00,
2013-05-06 11:55:00,70.2,34.6,29.85,SE,132,3.0,5.0,27,0.00,,,0.00,Wunderground v.1.15,2013-05-06 15:55:00,
2013-05-06 12:05:00,70.5,39.2,29.84,South,190,3.0,4.0,32,0.00,,,0.00,Wunderground v.1.15,2013-05-06 16:05:00,
2013-05-06 12:10:00,70.9,39.6,29.84,SE,142,3.0,4.0,32,0.00,,,0.00,Wunderground v.1.15,2013-05-06 16:10:00,
2013-05-06 12:20:00,71.5,40.1,29.84,SSW,192,3.0,4.0,32,0.00,,,0.00,Wunderground v.1.15,2013-05-06 16:20:00,
2013-05-06 12:25:00,71.7,37.7,29.84,South,169,3.0,4.0,29,0.00,,,0.00,Wunderground v.1.15,2013-05-06 16:25:00,
2013-05-06 12:35:00,71.9,37.0,29.83,SE,126,3.0,4.0,28,0.00,,,0.00,Wunderground v.1.15,2013-05-06 16:35:00,
2013-05-06 12:49:00,71.9,37.0,29.83,ESE,119,3.0,4.0,28,0.00,,,0.00,Wunderground v.1.15,2013-05-06 16:49:00,
2013-05-06 12:55:00,72.1,37.2,29.82,SW,234,2.0,4.0,28,0.00,,,0.00,Wunderground v.1.15,2013-05-06 16:55:00,
2013-05-06 13:05:00,72.3,40.8,29.82,ESE,111,3.0,4.0,32,0.00,,,0.00,Wunderground v.1.15,2013-05-06 17:05:00,
2013-05-06 13:10:00,72.6,39.4,29.81,ENE,69,2.0,4.0,30,0.00,,,0.00,Wunderground v.1.15,2013-05-06 17:10:00,
2013-05-06 13:15:00,73.1,39.8,29.82,ESE,121,3.0,4.0,30,0.00,,,0.00,Wunderground v.1.15,2013-05-06 17:15:00,
2013-05-06 13:25:00,72.5,37.5,29.81,SE,128,5.0,5.0,28,0.00,,,0.00,Wunderground v.1.15,2013-05-06 17:25:00,
2013-05-06 13:30:00,72.4,39.2,29.81,ESE,117,4.0,5.0,30,0.00,,,0.00,Wunderground v.1.15,2013-05-06 17:30:00,
2013-05-06 13:55:00,74.0,36.9,29.81,SSW,192,4.0,4.0,26,0.00,,,0.00,Wunderground v.1.15,2013-05-06 17:55:00,
2013-05-06 14:00:00,74.1,38.0,29.80,South,170,3.0,4.0,27,0.00,,,0.00,Wunderground v.1.15,2013-05-06 18:00:00,
2013-05-06 14:10:00,74.4,39.2,29.80,ESE,104,2.0,2.0,28,0.00,,,0.00,Wunderground v.1.15,2013-05-06 18:10:00,
2013-05-06 14:20:00,73.9,35.8,29.80,South,185,5.0,8.0,25,0.00,,,0.00,Wunderground v.1.15,2013-05-06 18:20:00,
2013-05-06 14:25:00,73.4,33.3,29.80,NNW,329,4.0,8.0,23,0.00,,,0.00,Wunderground v.1.15,2013-05-06 18:25:00,
2013-05-06 14:35:00,73.8,37.7,29.79,SE,128,3.0,7.0,27,0.00,,,0.00,Wunderground v.1.15,2013-05-06 18:35:00,
2013-05-06 14:40:00,73.6,33.5,29.79,East,84,4.0,8.0,23,0.00,,,0.00,Wunderground v.1.15,2013-05-06 18:40:00,
2013-05-06 14:45:00,73.6,35.6,29.79,South,185,5.0,8.0,25,0.00,,,0.00,Wunderground v.1.15,2013-05-06 18:45:00,
2013-05-06 14:50:00,74.1,35.0,29.78,SE,128,4.0,4.0,24,0.00,,,0.00,Wunderground v.1.15,2013-05-06 18:50:00,
2013-05-06 15:00:00,73.6,36.6,29.78,South,188,5.0,5.0,26,0.00,,,0.00,Wunderground v.1.15,2013-05-06 19:00:00,
2013-05-06 15:05:00,73.7,34.6,29.78,SW,234,6.0,6.0,24,0.00,,,0.00,Wunderground v.1.15,2013-05-06 19:05:00,
2013-05-06 15:15:00,73.9,41.3,29.78,SSW,200,4.0,4.0,31,0.00,,,0.00,Wunderground v.1.15,2013-05-06 19:15:00,
2013-05-06 15:20:00,74.1,31.6,29.77,SW,235,4.0,8.0,21,0.00,,,0.00,Wunderground v.1.15,2013-05-06 19:20:00,
2013-05-06 15:25:00,74.2,39.0,29.77,SSE,155,5.0,5.0,28,0.00,,,0.00,Wunderground v.1.15,2013-05-06 19:25:00,
2013-05-06 15:30:00,74.3,37.2,29.77,South,182,4.0,5.0,26,0.00,,,0.00,Wunderground v.1.15,2013-05-06 19:30:00,
2013-05-06 15:45:00,74.3,31.8,29.77,ESE,106,4.0,4.0,21,0.00,,,0.00,Wunderground v.1.15,2013-05-06 19:45:00,
2013-05-06 15:55:00,74.5,32.0,29.76,SSW,205,5.0,6.0,21,0.00,,,0.00,Wunderground v.1.15,2013-05-06 19:55:00,
2013-05-06 16:05:00,74.5,36.4,29.76,South,184,4.0,5.0,25,0.00,,,0.00,Wunderground v.1.15,2013-05-06 20:05:00,
2013-05-06 16:10:00,74.1,31.6,29.76,SSE,155,6.0,6.0,21,0.00,,,0.00,Wunderground v.1.15,2013-05-06 20:10:00,
2013-05-06 16:20:00,74.0,33.8,29.76,West,275,5.0,6.0,23,0.00,,,0.00,Wunderground v.1.15,2013-05-06 20:20:00,
2013-05-06 16:30:00,74.0,27.8,29.75,SE,127,6.0,9.0,18,0.00,,,0.00,Wunderground v.1.15,2013-05-06 20:30:00,
2013-05-06 16:45:00,74.2,34.0,29.75,SSE,167,4.0,4.0,23,0.00,,,0.00,Wunderground v.1.15,2013-05-06 20:45:00,
2013-05-06 16:50:00,74.0,31.6,29.75,SSE,154,5.0,5.0,21,0.00,,,0.00,Wunderground v.1.15,2013-05-06 20:50:00,
2013-05-06 17:05:00,73.9,31.5,29.74,ESE,116,4.0,4.0,21,0.00,,,0.00,Wunderground v.1.15,2013-05-06 21:05:00,
2013-05-06 17:10:00,73.8,28.9,29.74,SSE,157,4.0,5.0,19,0.00,,,0.00,Wunderground v.1.15,2013-05-06 21:10:00,
2013-05-06 17:25:00,73.4,31.1,29.74,SE,132,3.0,3.0,21,0.00,,,0.00,Wunderground v.1.15,2013-05-06 21:25:00,
2013-05-06 17:30:00,73.3,28.5,29.74,ESE,123,4.0,4.0,19,0.00,,,0.00,Wunderground v.1.15,2013-05-06 21:30:00,
2013-05-06 17:45:00,73.3,22.8,29.74,SSW,200,4.0,4.0,15,0.00,,,0.00,Wunderground v.1.15,2013-05-06 21:45:00,
2013-05-06 17:50:00,73.3,22.8,29.74,South,173,5.0,8.0,15,0.00,,,0.00,Wunderground v.1.15,2013-05-06 21:50:00,
2013-05-06 18:05:00,72.9,20.9,29.74,SSW,194,5.0,6.0,14,0.00,,,0.00,Wunderground v.1.15,2013-05-06 22:05:00,
2013-05-06 18:10:00,72.7,17.1,29.74,SSW,205,5.0,6.0,12,0.00,,,0.00,Wunderground v.1.15,2013-05-06 22:10:00,
2013-05-06 18:35:00,71.2,19.5,29.73,SSW,209,5.0,6.0,14,0.00,,,0.00,Wunderground v.1.15,2013-05-06 22:35:00,
2013-05-06 18:40:00,71.0,21.0,29.73,South,185,5.0,6.0,15,0.00,,,0.00,Wunderground v.1.15,2013-05-06 22:40:00,
2013-05-06 18:45:00,70.6,22.2,29.73,South,180,5.0,5.0,16,0.00,,,0.00,Wunderground v.1.15,2013-05-06 22:45:00,
2013-05-06 18:55:00,70.4,23.5,29.73,SSW,212,4.0,4.0,17,0.00,,,0.00,Wunderground v.1.15,2013-05-06 22:55:00,
2013-05-06 19:05:00,70.6,23.6,29.73,South,188,4.0,4.0,17,0.00,,,0.00,Wunderground v.1.15,2013-05-06 23:05:00,
2013-05-06 19:15:00,69.5,22.7,29.74,South,175,2.0,2.0,17,0.00,,,0.00,Wunderground v.1.15,2013-05-06 23:15:00,
2013-05-06 19:25:00,68.1,21.6,29.74,SW,229,2.0,3.0,17,0.00,,,0.00,Wunderground v.1.15,2013-05-06 23:25:00,
2013-05-06 19:35:00,66.8,23.2,29.74,SSW,209,2.0,3.0,19,0.00,,,0.00,Wunderground v.1.15,2013-05-06 23:35:00,
2013-05-06 19:45:00,65.6,23.4,29.74,SW,223,2.0,2.0,20,0.00,,,0.00,Wunderground v.1.15,2013-05-06 23:45:00,
2013-05-06 19:55:00,65.0,22.9,29.74,SW,236,2.0,2.0,20,0.00,,,0.00,Wunderground v.1.15,2013-05-06 23:55:00,
2013-05-06 20:05:00,64.6,21.4,29.74,SW,214,2.0,3.0,19,0.00,,,0.00,Wunderground v.1.15,2013-05-07 00:05:00,
2013-05-06 20:15:00,64.1,22.2,29.74,SE,128,1.0,1.0,20,0.00,,,0.00,Wunderground v.1.15,2013-05-07 00:15:00,
2013-05-06 20:20:00,63.5,22.8,29.74,South,181,0.0,1.0,21,0.00,,,0.00,Wunderground v.1.15,2013-05-07 00:20:00,
2013-05-06 20:35:00,62.6,24.2,29.75,South,181,0.0,0.0,23,0.00,,,0.00,Wunderground v.1.15,2013-05-07 00:35:00,
2013-05-06 20:40:00,62.1,23.8,29.75,South,181,0.0,1.0,23,0.00,,,0.00,Wunderground v.1.15,2013-05-07 00:40:00,
2013-05-06 20:55:00,61.1,25.0,29.76,West,269,1.0,1.0,25,0.00,,,0.00,Wunderground v.1.15,2013-05-07 00:55:00,
2013-05-06 21:05:00,61.6,28.1,29.76,SSW,194,1.0,1.0,28,0.00,,,0.00,Wunderground v.1.15,2013-05-07 01:05:00,
2013-05-06 21:10:00,61.2,27.8,29.76,SW,219,1.0,1.0,28,0.00,,,0.00,Wunderground v.1.15,2013-05-07 01:10:00,
2013-05-06 21:15:00,61.1,27.7,29.77,West,259,1.0,1.0,28,0.00,,,0.00,Wunderground v.1.15,2013-05-07 01:15:00,
2013-05-06 21:25:00,60.7,29.1,29.77,WSW,245,1.0,2.0,30,0.00,,,0.00,Wunderground v.1.15,2013-05-07 01:25:00,
2013-05-06 21:30:00,60.4,28.8,29.77,SSW,209,1.0,2.0,30,0.00,,,0.00,Wunderground v.1.15,2013-05-07 01:30:00,
2013-05-06 21:35:00,60.5,28.9,29.77,SSW,200,1.0,2.0,30,0.00,,,0.00,Wunderground v.1.15,2013-05-07 01:35:00,
2013-05-06 21:45:00,60.6,29.0,29.77,SSW,212,2.0,2.0,30,0.00,,,0.00,Wunderground v.1.15,2013-05-07 01:45:00,
2013-05-06 21:50:00,60.4,30.4,29.78,SSW,200,2.0,2.0,32,0.00,,,0.00,Wunderground v.1.15,2013-05-07 01:50:00,
2013-05-06 22:05:00,59.3,30.2,29.78,SW,230,1.0,1.0,33,0.00,,,0.00,Wunderground v.1.15,2013-05-07 02:05:00,
2013-05-06 22:15:00,59.4,29.5,29.78,SSW,207,2.0,2.0,32,0.00,,,0.00,Wunderground v.1.15,2013-05-07 02:15:00,
2013-05-06 22:25:00,59.4,30.3,29.78,SW,229,1.0,1.0,33,0.00,,,0.00,Wunderground v.1.15,2013-05-07 02:25:00,
2013-05-06 22:30:00,59.3,30.2,29.78,SW,228,1.0,1.0,33,0.00,,,0.00,Wunderground v.1.15,2013-05-07 02:30:00,
2013-05-06 22:40:00,58.9,29.8,29.78,SW,228,0.0,0.0,33,0.00,,,0.00,Wunderground v.1.15,2013-05-07 02:40:00,
2013-05-06 22:45:00,58.5,30.2,29.78,West,281,0.0,0.0,34,0.00,,,0.00,Wunderground v.1.15,2013-05-07 02:45:00,
2013-05-06 22:50:00,58.5,30.2,29.78,West,281,0.0,0.0,34,0.00,,,0.00,Wunderground v.1.15,2013-05-07 02:50:00,
2013-05-06 22:55:00,58.6,30.3,29.78,West,281,0.0,0.0,34,0.00,,,0.00,Wunderground v.1.15,2013-05-07 02:55:00,
2013-05-06 23:05:00,58.4,30.1,29.78,West,281,0.0,0.0,34,0.00,,,0.00,Wunderground v.1.15,2013-05-07 03:05:00,
2013-05-06 23:10:00,58.4,30.1,29.78,West,281,0.0,0.0,34,0.00,,,0.00,Wunderground v.1.15,2013-05-07 03:10:00,
2013-05-06 23:20:00,58.2,30.7,29.78,SSW,209,0.0,0.0,35,0.00,,,0.00,Wunderground v.1.15,2013-05-07 03:20:00,
2013-05-06 23:25:00,58.0,30.5,29.78,SSW,195,0.0,0.0,35,0.00,,,0.00,Wunderground v.1.15,2013-05-07 03:25:00,
2013-05-06 23:40:00,57.4,31.3,29.78,South,184,1.0,1.0,37,0.00,,,0.00,Wunderground v.1.15,2013-05-07 03:40:00,
2013-05-06 23:45:00,57.3,31.2,29.78,SSW,194,0.0,1.0,37,0.00,,,0.00,Wunderground v.1.15,2013-05-07 03:45:00,
2013-05-06 23:50:00,57.2,31.8,29.78,SSW,208,1.0,1.0,38,0.00,,,0.00,Wunderground v.1.15,2013-05-07 03:50:00,